YAYE/AYQ METAR and TAF weather

Enter ICAO airport designator
Station Type Date Time Source
YAYE METAR 2021/01/17 18:00 UTC NOAA

YAYE 171800Z AUTO 15006KT 9999 // NCD 19/01 Q1016


Station Type Date Time Source
YAYE Decoded METAR 2021/01/17 18:00 UTC NOAA

Ayers Rock, Australia (YAYE) 25-11S 130-58E
Jan 17, 2021 - 01:00 PM EST / 2021.01.17 1800 UTC
Wind: from the SSE (150 degrees) at 7 MPH (6 KT):0
Visibility: greater than 7 mile(s):0
Temperature: 66 F (19 C)
Dew Point: 33 F (1 C)
Relative Humidity: 29%
Pressure (altimeter): 30.00 in. Hg (1016 hPa)
ob: YAYE 171800Z AUTO 15006KT 9999 // NCD 19/01 Q1016
cycle: 18

Station Type Date Time Source
YAYE TAF UTC NOAA

Error!

Example: see airport list